sensor_id;sensor_type;location;lat;lon;timestamp;pressure;altitude;pressure_sealevel;temperature
76381;BMP280;65202;52.520;10.528;2023-09-18T00:01:20;100459.84;;;20.06
76381;BMP280;65202;52.520;10.528;2023-09-18T00:03:48;100448.00;;;20.11
76381;BMP280;65202;52.520;10.528;2023-09-18T00:06:15;100440.28;;;19.75
76381;BMP280;65202;52.520;10.528;2023-09-18T00:08:42;100447.16;;;20.03
76381;BMP280;65202;52.520;10.528;2023-09-18T00:11:09;100446.19;;;19.71
76381;BMP280;65202;52.520;10.528;2023-09-18T00:13:38;100453.81;;;19.67
76381;BMP280;65202;52.520;10.528;2023-09-18T00:16:05;100454.56;;;19.47
76381;BMP280;65202;52.520;10.528;2023-09-18T00:18:33;100462.31;;;19.73
76381;BMP280;65202;52.520;10.528;2023-09-18T00:21:00;100457.31;;;19.99
76381;BMP280;65202;52.520;10.528;2023-09-18T00:23:28;100461.47;;;19.77
76381;BMP280;65202;52.520;10.528;2023-09-18T00:25:55;100457.09;;;19.48
76381;BMP280;65202;52.520;10.528;2023-09-18T00:28:22;100446.97;;;19.41
76381;BMP280;65202;52.520;10.528;2023-09-18T00:30:50;100444.44;;;19.53
76381;BMP280;65202;52.520;10.528;2023-09-18T00:33:17;100432.59;;;19.52
76381;BMP280;65202;52.520;10.528;2023-09-18T00:35:50;100435.94;;;19.36
76381;BMP280;65202;52.520;10.528;2023-09-18T00:38:18;100433.47;;;19.62
76381;BMP280;65202;52.520;10.528;2023-09-18T00:40:46;100419.97;;;19.71
76381;BMP280;65202;52.520;10.528;2023-09-18T00:43:14;100428.41;;;19.60
76381;BMP280;65202;52.520;10.528;2023-09-18T00:45:44;100419.00;;;19.38
76381;BMP280;65202;52.520;10.528;2023-09-18T00:48:14;100406.34;;;19.45
76381;BMP280;65202;52.520;10.528;2023-09-18T00:50:44;100400.44;;;19.54
76381;BMP280;65202;52.520;10.528;2023-09-18T00:53:16;100395.38;;;19.61
76381;BMP280;65202;52.520;10.528;2023-09-18T00:55:45;100388.59;;;19.56
76381;BMP280;65202;52.520;10.528;2023-09-18T00:58:13;100381.81;;;19.46
76381;BMP280;65202;52.520;10.528;2023-09-18T01:00:40;100382.69;;;19.65
76381;BMP280;65202;52.520;10.528;2023-09-18T01:03:09;100381.81;;;19.50
76381;BMP280;65202;52.520;10.528;2023-09-18T01:05:37;100378.44;;;19.59
76381;BMP280;65202;52.520;10.528;2023-09-18T01:08:04;100375.88;;;19.45
76381;BMP280;65202;52.520;10.528;2023-09-18T01:10:39;100375.78;;;19.21
76381;BMP280;65202;52.520;10.528;2023-09-18T01:13:30;100374.97;;;19.27
76381;BMP280;65202;52.520;10.528;2023-09-18T01:16:23;100368.91;;;19.05
76381;BMP280;65202;52.520;10.528;2023-09-18T01:18:54;100364.66;;;18.91
76381;BMP280;65202;52.520;10.528;2023-09-18T01:21:22;100358.03;;;19.24
76381;BMP280;65202;52.520;10.528;2023-09-18T01:23:49;100356.31;;;19.22
76381;BMP280;65202;52.520;10.528;2023-09-18T01:26:16;100356.44;;;19.46
76381;BMP280;65202;52.520;10.528;2023-09-18T01:28:44;100347.91;;;19.26
76381;BMP280;65202;52.520;10.528;2023-09-18T01:31:11;100339.31;;;19.00
76381;BMP280;65202;52.520;10.528;2023-09-18T01:33:39;100335.91;;;18.95
76381;BMP280;65202;52.520;10.528;2023-09-18T01:36:07;100344.38;;;19.03
76381;BMP280;65202;52.520;10.528;2023-09-18T01:38:36;100338.47;;;19.02
76381;BMP280;65202;52.520;10.528;2023-09-18T01:41:04;100338.56;;;19.19
76381;BMP280;65202;52.520;10.528;2023-09-18T01:43:31;100330.94;;;19.13
76381;BMP280;65202;52.520;10.528;2023-09-18T01:45:59;100330.97;;;19.16
76381;BMP280;65202;52.520;10.528;2023-09-18T01:48:26;100320.78;;;19.13
76381;BMP280;65202;52.520;10.528;2023-09-18T01:50:53;100325.88;;;19.16
76381;BMP280;65202;52.520;10.528;2023-09-18T01:53:20;100319.06;;;19.09
76381;BMP280;65202;52.520;10.528;2023-09-18T01:55:48;100319.03;;;19.03
76381;BMP280;65202;52.520;10.528;2023-09-18T01:58:15;100323.13;;;18.74
76381;BMP280;65202;52.520;10.528;2023-09-18T02:00:43;100325.69;;;18.80
76381;BMP280;65202;52.520;10.528;2023-09-18T02:03:11;100323.16;;;18.80
76381;BMP280;65202;52.520;10.528;2023-09-18T02:05:58;100314.78;;;18.96
76381;BMP280;65202;52.520;10.528;2023-09-18T02:08:26;100308.88;;;18.97
76381;BMP280;65202;52.520;10.528;2023-09-18T02:10:53;100308.78;;;18.76
76381;BMP280;65202;52.520;10.528;2023-09-18T02:13:20;100305.56;;;19.07
76381;BMP280;65202;52.520;10.528;2023-09-18T02:15:48;100304.63;;;18.96
76381;BMP280;65202;52.520;10.528;2023-09-18T02:18:15;100292.88;;;19.13
76381;BMP280;65202;52.520;10.528;2023-09-18T02:20:43;100290.22;;;18.89
76381;BMP280;65202;52.520;10.528;2023-09-18T02:23:15;100292.00;;;19.08
76381;BMP280;65202;52.520;10.528;2023-09-18T02:25:43;100284.28;;;18.83
76381;BMP280;65202;52.520;10.528;2023-09-18T02:28:10;100268.25;;;18.94
76381;BMP280;65202;52.520;10.528;2023-09-18T02:30:37;100274.16;;;18.86
76381;BMP280;65202;52.520;10.528;2023-09-18T02:33:04;100267.38;;;18.77
76381;BMP280;65202;52.520;10.528;2023-09-18T02:35:32;100275.78;;;18.70
76381;BMP280;65202;52.520;10.528;2023-09-18T02:37:59;100274.16;;;18.90
76381;BMP280;65202;52.520;10.528;2023-09-18T02:40:29;100276.66;;;18.83
76381;BMP280;65202;52.520;10.528;2023-09-18T02:42:56;100271.53;;;18.66
76381;BMP280;65202;52.520;10.528;2023-09-18T02:45:23;100266.44;;;18.56
76381;BMP280;65202;52.520;10.528;2023-09-18T02:47:50;100273.22;;;18.61
76381;BMP280;65202;52.520;10.528;2023-09-18T02:50:18;100262.28;;;18.77
76381;BMP280;65202;52.520;10.528;2023-09-18T02:52:45;100263.06;;;18.58
76381;BMP280;65202;52.520;10.528;2023-09-18T02:55:12;100261.50;;;18.96
76381;BMP280;65202;52.520;10.528;2023-09-18T02:57:40;100253.03;;;18.90
76381;BMP280;65202;52.520;10.528;2023-09-18T03:00:08;100253.78;;;18.68
76381;BMP280;65202;52.520;10.528;2023-09-18T03:02:36;100252.16;;;18.82
76381;BMP280;65202;52.520;10.528;2023-09-18T03:05:04;100241.03;;;18.48
76381;BMP280;65202;52.520;10.528;2023-09-18T03:07:31;100247.94;;;18.82
76381;BMP280;65202;52.520;10.528;2023-09-18T03:09:59;100243.66;;;18.66
76381;BMP280;65202;52.520;10.528;2023-09-18T03:12:26;100239.34;;;18.50
76381;BMP280;65202;52.520;10.528;2023-09-18T03:14:53;100232.59;;;18.51
76381;BMP280;65202;52.520;10.528;2023-09-18T03:17:20;100237.72;;;18.64
76381;BMP280;65202;52.520;10.528;2023-09-18T03:19:48;100230.13;;;18.58
76381;BMP280;65202;52.520;10.528;2023-09-18T03:22:16;100218.22;;;18.51
76381;BMP280;65202;52.520;10.528;2023-09-18T03:24:43;100223.38;;;18.65
76381;BMP280;65202;52.520;10.528;2023-09-18T03:27:10;100219.13;;;18.65
76381;BMP280;65202;52.520;10.528;2023-09-18T03:29:38;100213.25;;;18.71
76381;BMP280;65202;52.520;10.528;2023-09-18T03:32:05;100219.13;;;18.64
76381;BMP280;65202;52.520;10.528;2023-09-18T03:34:32;100209.00;;;18.65
76381;BMP280;65202;52.520;10.528;2023-09-18T03:37:00;100210.69;;;18.65
76381;BMP280;65202;52.520;10.528;2023-09-18T03:39:27;100205.59;;;18.54
76381;BMP280;65202;52.520;10.528;2023-09-18T03:41:55;100200.38;;;18.25
76381;BMP280;65202;52.520;10.528;2023-09-18T03:44:22;100206.97;;;17.99
76381;BMP280;65202;52.520;10.528;2023-09-18T03:46:49;100199.25;;;17.81
76381;BMP280;65202;52.520;10.528;2023-09-18T03:49:17;100203.75;;;18.21
76381;BMP280;65202;52.520;10.528;2023-09-18T03:51:44;100192.06;;;18.55
76381;BMP280;65202;52.520;10.528;2023-09-18T03:54:11;100193.59;;;18.18
76381;BMP280;65202;52.520;10.528;2023-09-18T03:56:38;100190.34;;;18.51
76381;BMP280;65202;52.520;10.528;2023-09-18T03:59:06;100191.16;;;18.41
76381;BMP280;65202;52.520;10.528;2023-09-18T04:01:33;100180.25;;;18.54
76381;BMP280;65202;52.520;10.528;2023-09-18T04:04:00;100181.78;;;18.20
76381;BMP280;65202;52.520;10.528;2023-09-18T04:06:41;100181.78;;;18.20
76381;BMP280;65202;52.520;10.528;2023-09-18T04:09:13;100175.09;;;18.36
76381;BMP280;65202;52.520;10.528;2023-09-18T04:11:42;100170.84;;;18.31
76381;BMP280;65202;52.520;10.528;2023-09-18T04:14:09;100165.66;;;18.12
76381;BMP280;65202;52.520;10.528;2023-09-18T04:16:36;100163.06;;;18.01
76381;BMP280;65202;52.520;10.528;2023-09-18T04:19:07;100163.91;;;18.00
76381;BMP280;65202;52.520;10.528;2023-09-18T04:21:35;100152.97;;;18.12
76381;BMP280;65202;52.520;10.528;2023-09-18T04:24:03;100139.44;;;18.05
76381;BMP280;65202;52.520;10.528;2023-09-18T04:26:30;100138.63;;;18.02
76381;BMP280;65202;52.520;10.528;2023-09-18T04:29:01;100120.78;;;17.85
76381;BMP280;65202;52.520;10.528;2023-09-18T04:31:28;100125.06;;;18.00
76381;BMP280;65202;52.520;10.528;2023-09-18T04:33:56;100117.47;;;17.97
76381;BMP280;65202;52.520;10.528;2023-09-18T04:36:23;100116.75;;;18.20
76381;BMP280;65202;52.520;10.528;2023-09-18T04:38:51;100106.56;;;18.13
76381;BMP280;65202;52.520;10.528;2023-09-18T04:41:19;100103.94;;;17.92
76381;BMP280;65202;52.520;10.528;2023-09-18T04:43:46;100090.56;;;18.23
76381;BMP280;65202;52.520;10.528;2023-09-18T04:46:14;100092.31;;;18.28
76381;BMP280;65202;52.520;10.528;2023-09-18T04:48:42;100084.69;;;18.31
76381;BMP280;65202;52.520;10.528;2023-09-18T04:51:09;100083.63;;;17.77
76381;BMP280;65202;52.520;10.528;2023-09-18T04:53:37;100079.44;;;17.83
76381;BMP280;65202;52.520;10.528;2023-09-18T04:56:04;100079.50;;;17.97
76381;BMP280;65202;52.520;10.528;2023-09-18T04:58:32;100077.09;;;18.31
76381;BMP280;65202;52.520;10.528;2023-09-18T05:00:59;100071.16;;;18.29
76381;BMP280;65202;52.520;10.528;2023-09-18T05:03:34;100072.84;;;18.23
76381;BMP280;65202;52.520;10.528;2023-09-18T05:06:02;100075.44;;;18.42
76381;BMP280;65202;52.520;10.528;2023-09-18T05:08:31;100068.66;;;18.33
76381;BMP280;65202;52.520;10.528;2023-09-18T05:10:58;100070.38;;;18.33
76381;BMP280;65202;52.520;10.528;2023-09-18T05:13:26;100072.91;;;18.46
76381;BMP280;65202;52.520;10.528;2023-09-18T05:15:53;100063.59;;;18.45
76381;BMP280;65202;52.520;10.528;2023-09-18T05:18:20;100055.97;;;18.28
76381;BMP280;65202;52.520;10.528;2023-09-18T05:20:48;100056.03;;;18.48
76381;BMP280;65202;52.520;10.528;2023-09-18T05:23:16;100055.19;;;18.52
76381;BMP280;65202;52.520;10.528;2023-09-18T05:25:45;100042.50;;;18.51
76381;BMP280;65202;52.520;10.528;2023-09-18T05:28:12;100039.13;;;18.65
76381;BMP280;65202;52.520;10.528;2023-09-18T05:30:39;100034.09;;;18.68
76381;BMP280;65202;52.520;10.528;2023-09-18T05:33:07;100028.16;;;18.77
76381;BMP280;65202;52.520;10.528;2023-09-18T05:35:40;100031.53;;;18.80
76381;BMP280;65202;52.520;10.528;2023-09-18T05:38:12;100034.06;;;18.62
76381;BMP280;65202;52.520;10.528;2023-09-18T05:40:41;100026.47;;;18.80
76381;BMP280;65202;52.520;10.528;2023-09-18T05:43:09;100023.94;;;19.01
76381;BMP280;65202;52.520;10.528;2023-09-18T05:45:37;100021.38;;;18.98
76381;BMP280;65202;52.520;10.528;2023-09-18T05:48:05;100025.63;;;19.11
76381;BMP280;65202;52.520;10.528;2023-09-18T05:50:34;100022.22;;;18.87
76381;BMP280;65202;52.520;10.528;2023-09-18T05:53:03;100006.19;;;19.07
76381;BMP280;65202;52.520;10.528;2023-09-18T05:55:32;100006.16;;;19.01
76381;BMP280;65202;52.520;10.528;2023-09-18T05:58:01;100004.47;;;18.79
76381;BMP280;65202;52.520;10.528;2023-09-18T06:00:31;99992.66;;;18.96
76381;BMP280;65202;52.520;10.528;2023-09-18T06:02:59;99989.28;;;19.07
76381;BMP280;65202;52.520;10.528;2023-09-18T06:05:27;99988.41;;;19.01
76381;BMP280;65202;52.520;10.528;2023-09-18T06:07:54;99980.81;;;19.08
76381;BMP280;65202;52.520;10.528;2023-09-18T06:10:21;99975.72;;;19.11
76381;BMP280;65202;52.520;10.528;2023-09-18T06:12:48;99974.03;;;19.18
76381;BMP280;65202;52.520;10.528;2023-09-18T06:15:16;99968.94;;;19.28
76381;BMP280;65202;52.520;10.528;2023-09-18T06:17:43;99973.88;;;19.58
76381;BMP280;65202;52.520;10.528;2023-09-18T06:20:11;99991.59;;;19.73
76381;BMP280;65202;52.520;10.528;2023-09-18T06:22:43;100014.47;;;19.65
76381;BMP280;65202;52.520;10.528;2023-09-18T06:25:10;100006.03;;;19.69
76381;BMP280;65202;52.520;10.528;2023-09-18T06:27:38;99997.56;;;19.61
76381;BMP280;65202;52.520;10.528;2023-09-18T06:30:06;100006.91;;;19.61
76381;BMP280;65202;52.520;10.528;2023-09-18T06:32:34;100003.44;;;19.77
76381;BMP280;65202;52.520;10.528;2023-09-18T06:35:01;100015.34;;;19.63
76381;BMP280;65202;52.520;10.528;2023-09-18T06:37:29;100011.00;;;19.84
76381;BMP280;65202;52.520;10.528;2023-09-18T06:39:56;100006.88;;;19.68
76381;BMP280;65202;52.520;10.528;2023-09-18T06:42:26;99990.69;;;19.84
76381;BMP280;65202;52.520;10.528;2023-09-18T06:44:53;99977.91;;;20.10
76381;BMP280;65202;52.520;10.528;2023-09-18T06:47:21;99960.19;;;19.96
76381;BMP280;65202;52.520;10.528;2023-09-18T06:49:51;99948.22;;;20.16
76381;BMP280;65202;52.520;10.528;2023-09-18T06:52:18;99948.97;;;20.30
76381;BMP280;65202;52.520;10.528;2023-09-18T06:54:46;99935.47;;;20.24
76381;BMP280;65202;52.520;10.528;2023-09-18T06:57:13;99930.19;;;20.47
76381;BMP280;65202;52.520;10.528;2023-09-18T06:59:40;99932.66;;;20.55
76381;BMP280;65202;52.520;10.528;2023-09-18T07:02:07;99924.03;;;20.72
76381;BMP280;65202;52.520;10.528;2023-09-18T07:04:35;99915.47;;;20.81
76381;BMP280;65202;52.520;10.528;2023-09-18T07:07:02;99911.97;;;20.93
76381;BMP280;65202;52.520;10.528;2023-09-18T07:09:30;99905.19;;;20.92
76381;BMP280;65202;52.520;10.528;2023-09-18T07:11:57;99899.22;;;20.96
76381;BMP280;65202;52.520;10.528;2023-09-18T07:14:24;99895.84;;;20.96
76381;BMP280;65202;52.520;10.528;2023-09-18T07:16:52;99900.00;;;21.01
76381;BMP280;65202;52.520;10.528;2023-09-18T07:19:19;99900.88;;;20.99
76381;BMP280;65202;52.520;10.528;2023-09-18T07:21:46;99903.47;;;20.94
76381;BMP280;65202;52.520;10.528;2023-09-18T07:24:13;99889.06;;;20.95
76381;BMP280;65202;52.520;10.528;2023-09-18T07:26:45;99893.31;;;20.91
76381;BMP280;65202;52.520;10.528;2023-09-18T07:29:14;99889.75;;;21.07
76381;BMP280;65202;52.520;10.528;2023-09-18T07:31:43;99891.38;;;21.13
76381;BMP280;65202;52.520;10.528;2023-09-18T07:34:11;99889.69;;;21.13
76381;BMP280;65202;52.520;10.528;2023-09-18T07:36:40;99893.16;;;21.06
76381;BMP280;65202;52.520;10.528;2023-09-18T07:39:07;99894.97;;;20.98
76381;BMP280;65202;52.520;10.528;2023-09-18T07:41:35;99900.78;;;21.08
76381;BMP280;65202;52.520;10.528;2023-09-18T07:44:02;99903.16;;;21.23
76381;BMP280;65202;52.520;10.528;2023-09-18T07:46:30;99920.34;;;21.01
76381;BMP280;65202;52.520;10.528;2023-09-18T07:48:57;99921.13;;;21.08
76381;BMP280;65202;52.520;10.528;2023-09-18T07:51:24;99924.59;;;20.99
76381;BMP280;65202;52.520;10.528;2023-09-18T07:53:52;99916.84;;;21.11
76381;BMP280;65202;52.520;10.528;2023-09-18T07:56:19;99915.94;;;21.17
76381;BMP280;65202;52.520;10.528;2023-09-18T07:58:46;99912.59;;;21.15
76381;BMP280;65202;52.520;10.528;2023-09-18T08:01:14;99912.41;;;21.28
76381;BMP280;65202;52.520;10.528;2023-09-18T08:03:43;99913.31;;;21.24
76381;BMP280;65202;52.520;10.528;2023-09-18T08:06:10;99914.94;;;21.28
76381;BMP280;65202;52.520;10.528;2023-09-18T08:08:38;99908.00;;;21.42
76381;BMP280;65202;52.520;10.528;2023-09-18T08:11:07;99918.31;;;21.30
76381;BMP280;65202;52.520;10.528;2023-09-18T08:13:37;99924.84;;;21.55
76381;BMP280;65202;52.520;10.528;2023-09-18T08:16:06;99923.34;;;21.36
76381;BMP280;65202;52.520;10.528;2023-09-18T08:18:34;99932.75;;;21.31
76381;BMP280;65202;52.520;10.528;2023-09-18T08:21:02;99931.09;;;21.26
76381;BMP280;65202;52.520;10.528;2023-09-18T08:23:31;99931.94;;;21.28
76381;BMP280;65202;52.520;10.528;2023-09-18T08:25:59;99938.75;;;21.24
76381;BMP280;65202;52.520;10.528;2023-09-18T08:28:27;99934.38;;;21.37
76381;BMP280;65202;52.520;10.528;2023-09-18T08:30:54;99921.53;;;21.44
76381;BMP280;65202;52.520;10.528;2023-09-18T08:33:22;99929.97;;;21.52
76381;BMP280;65202;52.520;10.528;2023-09-18T08:35:49;99941.88;;;21.47
76381;BMP280;65202;52.520;10.528;2023-09-18T08:38:16;99946.94;;;21.50
76381;BMP280;65202;52.520;10.528;2023-09-18T08:40:44;99932.25;;;21.73
76381;BMP280;65202;52.520;10.528;2023-09-18T08:43:14;99932.63;;;22.06
76381;BMP280;65202;52.520;10.528;2023-09-18T08:45:48;99936.78;;;22.12
76381;BMP280;65202;52.520;10.528;2023-09-18T08:48:20;99946.22;;;22.05
76381;BMP280;65202;52.520;10.528;2023-09-18T08:50:49;99955.25;;;22.28
76381;BMP280;65202;52.520;10.528;2023-09-18T08:53:18;99941.66;;;22.28
76381;BMP280;65202;52.520;10.528;2023-09-18T08:55:45;99944.66;;;22.52
76381;BMP280;65202;52.520;10.528;2023-09-18T08:58:13;99938.81;;;22.47
76381;BMP280;65202;52.520;10.528;2023-09-18T09:00:41;99934.31;;;22.61
76381;BMP280;65202;52.520;10.528;2023-09-18T09:03:08;99940.22;;;22.63
76381;BMP280;65202;52.520;10.528;2023-09-18T09:05:37;99938.69;;;23.03
76381;BMP280;65202;52.520;10.528;2023-09-18T09:08:04;99923.84;;;23.62
76381;BMP280;65202;52.520;10.528;2023-09-18T09:10:31;99924.59;;;23.67
76381;BMP280;65202;52.520;10.528;2023-09-18T09:12:59;99928.97;;;23.62
76381;BMP280;65202;52.520;10.528;2023-09-18T09:15:47;99922.91;;;23.67
76381;BMP280;65202;52.520;10.528;2023-09-18T09:18:16;99917.75;;;23.69
76381;BMP280;65202;52.520;10.528;2023-09-18T09:20:53;99909.34;;;23.64
76381;BMP280;65202;52.520;10.528;2023-09-18T09:23:28;99906.47;;;23.80
76381;BMP280;65202;52.520;10.528;2023-09-18T09:26:15;99907.81;;;23.95
76381;BMP280;65202;52.520;10.528;2023-09-18T09:28:44;99914.41;;;24.05
76381;BMP280;65202;52.520;10.528;2023-09-18T09:31:31;99908.81;;;23.89
76381;BMP280;65202;52.520;10.528;2023-09-18T09:33:59;99906.47;;;23.80
76381;BMP280;65202;52.520;10.528;2023-09-18T09:36:29;99903.25;;;23.71
76381;BMP280;65202;52.520;10.528;2023-09-18T09:38:57;99898.13;;;23.69
76381;BMP280;65202;52.520;10.528;2023-09-18T09:41:26;99895.78;;;23.60
76381;BMP280;65202;52.520;10.528;2023-09-18T09:43:57;99899.22;;;23.59
76381;BMP280;65202;52.520;10.528;2023-09-18T09:46:25;99900.06;;;23.58
76381;BMP280;65202;52.520;10.528;2023-09-18T09:49:04;99900.97;;;23.57
76381;BMP280;65202;52.520;10.528;2023-09-18T09:51:33;99900.91;;;23.60
76381;BMP280;65202;52.520;10.528;2023-09-18T09:54:01;99904.28;;;23.62
76381;BMP280;65202;52.520;10.528;2023-09-18T09:56:47;99899.09;;;23.65
76381;BMP280;65202;52.520;10.528;2023-09-18T09:59:18;99897.47;;;23.61
76381;BMP280;65202;52.520;10.528;2023-09-18T10:01:47;99901.72;;;23.61
76381;BMP280;65202;52.520;10.528;2023-09-18T10:04:18;99901.09;;;23.51
76381;BMP280;65202;52.520;10.528;2023-09-18T10:06:57;99890.13;;;23.47
76381;BMP280;65202;52.520;10.528;2023-09-18T10:09:35;99896.16;;;23.44
76381;BMP280;65202;52.520;10.528;2023-09-18T10:12:10;99911.50;;;23.43
76381;BMP280;65202;52.520;10.528;2023-09-18T10:14:39;99913.31;;;23.38
76381;BMP280;65202;52.520;10.528;2023-09-18T10:17:27;99908.22;;;23.38
76381;BMP280;65202;52.520;10.528;2023-09-18T10:20:07;99911.63;;;23.37
76381;BMP280;65202;52.520;10.528;2023-09-18T10:22:40;99902.38;;;23.31
76381;BMP280;65202;52.520;10.528;2023-09-18T10:25:15;99890.53;;;23.29
76381;BMP280;65202;52.520;10.528;2023-09-18T10:27:48;99900.84;;;23.23
76381;BMP280;65202;52.520;10.528;2023-09-18T10:30:16;99905.13;;;23.21
76381;BMP280;65202;52.520;10.528;2023-09-18T10:32:45;99904.09;;;23.31
76381;BMP280;65202;52.520;10.528;2023-09-18T10:35:14;99902.34;;;23.33
76381;BMP280;65202;52.520;10.528;2023-09-18T10:37:42;99907.41;;;23.34
76381;BMP280;65202;52.520;10.528;2023-09-18T10:40:13;99915.16;;;23.30
76381;BMP280;65202;52.520;10.528;2023-09-18T10:42:41;99907.47;;;23.33
76381;BMP280;65202;52.520;10.528;2023-09-18T10:45:11;99910.06;;;23.31
76381;BMP280;65202;52.520;10.528;2023-09-18T10:47:41;99904.78;;;23.39
76381;BMP280;65202;52.520;10.528;2023-09-18T10:50:13;99912.38;;;23.42
76381;BMP280;65202;52.520;10.528;2023-09-18T10:52:51;99915.88;;;23.38
76381;BMP280;65202;52.520;10.528;2023-09-18T10:55:18;99911.47;;;23.44
76381;BMP280;65202;52.520;10.528;2023-09-18T10:57:52;99913.16;;;23.44
76381;BMP280;65202;52.520;10.528;2023-09-18T11:00:24;99902.84;;;23.49
76381;BMP280;65202;52.520;10.528;2023-09-18T11:03:27;99915.72;;;23.45
76381;BMP280;65202;52.520;10.528;2023-09-18T11:06:08;99928.50;;;23.44
76381;BMP280;65202;52.520;10.528;2023-09-18T11:08:47;99922.28;;;23.56
76381;BMP280;65202;52.520;10.528;2023-09-18T11:11:20;99920.97;;;23.78
76381;BMP280;65202;52.520;10.528;2023-09-18T11:13:51;99923.94;;;23.98
76381;BMP280;65202;52.520;10.528;2023-09-18T11:21:30;99933.31;;;24.34
76381;BMP280;65202;52.520;10.528;2023-09-18T11:24:07;99942.09;;;24.24
76381;BMP280;65202;52.520;10.528;2023-09-18T11:26:45;99935.13;;;24.29
76381;BMP280;65202;52.520;10.528;2023-09-18T11:29:16;99946.13;;;24.32
76381;BMP280;65202;52.520;10.528;2023-09-18T11:31:54;99966.56;;;24.34
76381;BMP280;65202;52.520;10.528;2023-09-18T11:36:58;99965.63;;;24.38
76381;BMP280;65202;52.520;10.528;2023-09-18T11:42:12;99956.03;;;24.10
76381;BMP280;65202;52.520;10.528;2023-09-18T11:44:43;99953.63;;;24.04
76381;BMP280;65202;52.520;10.528;2023-09-18T11:47:16;99952.53;;;24.15
76381;BMP280;65202;52.520;10.528;2023-09-18T11:49:53;99922.13;;;24.39
76381;BMP280;65202;52.520;10.528;2023-09-18T11:52:27;99915.31;;;24.37
76381;BMP280;65202;52.520;10.528;2023-09-18T11:54:58;99923.44;;;24.55
76381;BMP280;65202;52.520;10.528;2023-09-18T11:57:26;99935.66;;;24.77
76381;BMP280;65202;52.520;10.528;2023-09-18T11:59:56;99946.28;;;24.63
76381;BMP280;65202;52.520;10.528;2023-09-18T12:02:29;99931.16;;;24.54
76381;BMP280;65202;52.520;10.528;2023-09-18T12:05:14;99933.16;;;24.75
76381;BMP280;65202;52.520;10.528;2023-09-18T12:07:46;99931.44;;;24.75
76381;BMP280;65202;52.520;10.528;2023-09-18T12:10:15;99936.19;;;24.57
76381;BMP280;65202;52.520;10.528;2023-09-18T12:12:46;99929.59;;;24.47
76381;BMP280;65202;52.520;10.528;2023-09-18T12:15:18;99930.25;;;24.20
76381;BMP280;65202;52.520;10.528;2023-09-18T12:17:47;99941.56;;;24.09
76381;BMP280;65202;52.520;10.528;2023-09-18T12:20:18;99949.97;;;24.13
76381;BMP280;65202;52.520;10.528;2023-09-18T12:22:49;99946.69;;;24.09
76381;BMP280;65202;52.520;10.528;2023-09-18T12:25:18;99953.22;;;24.21
76381;BMP280;65202;52.520;10.528;2023-09-18T12:27:46;99944.34;;;24.36
76381;BMP280;65202;52.520;10.528;2023-09-18T12:30:19;99929.47;;;24.53
76381;BMP280;65202;52.520;10.528;2023-09-18T12:32:50;99932.38;;;24.73
76381;BMP280;65202;52.520;10.528;2023-09-18T12:35:18;99930.25;;;25.20
76381;BMP280;65202;52.520;10.528;2023-09-18T12:37:46;99934.06;;;25.36
76381;BMP280;65202;52.520;10.528;2023-09-18T12:40:29;99924.03;;;25.57
76381;BMP280;65202;52.520;10.528;2023-09-18T12:43:00;99926.94;;;25.45
76381;BMP280;65202;52.520;10.528;2023-09-18T12:45:29;99933.00;;;25.12
76381;BMP280;65202;52.520;10.528;2023-09-18T12:47:57;99942.03;;;24.93
76381;BMP280;65202;52.520;10.528;2023-09-18T12:50:27;99941.88;;;24.68
76381;BMP280;65202;52.520;10.528;2023-09-18T12:55:42;99957.09;;;24.72
76381;BMP280;65202;52.520;10.528;2023-09-18T12:58:11;99948.88;;;24.60
76381;BMP280;65202;52.520;10.528;2023-09-18T13:00:48;99928.56;;;24.55
76381;BMP280;65202;52.520;10.528;2023-09-18T13:03:17;99922.38;;;24.62
76381;BMP280;65202;52.520;10.528;2023-09-18T13:05:45;99913.94;;;24.59
76381;BMP280;65202;52.520;10.528;2023-09-18T13:08:14;99915.81;;;24.54
76381;BMP280;65202;52.520;10.528;2023-09-18T13:10:46;99936.56;;;24.42
76381;BMP280;65202;52.520;10.528;2023-09-18T13:13:22;99946.88;;;24.36
76381;BMP280;65202;52.520;10.528;2023-09-18T13:15:50;99939.19;;;24.37
76381;BMP280;65202;52.520;10.528;2023-09-18T13:18:22;99931.97;;;24.18
76381;BMP280;65202;52.520;10.528;2023-09-18T13:20:52;99926.09;;;24.14
76381;BMP280;65202;52.520;10.528;2023-09-18T13:23:27;99929.22;;;24.27
76381;BMP280;65202;52.520;10.528;2023-09-18T13:25:59;99924.88;;;24.30
76381;BMP280;65202;52.520;10.528;2023-09-18T13:28:27;99929.22;;;24.27
76381;BMP280;65202;52.520;10.528;2023-09-18T13:30:57;99933.72;;;24.16
76381;BMP280;65202;52.520;10.528;2023-09-18T13:33:26;99939.84;;;24.11
76381;BMP280;65202;52.520;10.528;2023-09-18T13:35:54;99939.38;;;23.94
76381;BMP280;65202;52.520;10.528;2023-09-18T13:38:22;99931.59;;;23.98
76381;BMP280;65202;52.520;10.528;2023-09-18T13:40:53;99921.38;;;23.98
76381;BMP280;65202;52.520;10.528;2023-09-18T13:43:24;99921.38;;;23.98
76381;BMP280;65202;52.520;10.528;2023-09-18T13:45:51;99920.41;;;24.02
76381;BMP280;65202;52.520;10.528;2023-09-18T13:48:18;99913.16;;;23.84
76381;BMP280;65202;52.520;10.528;2023-09-18T13:50:48;99923.16;;;23.95
76381;BMP280;65202;52.520;10.528;2023-09-18T13:53:18;99927.50;;;23.91
76381;BMP280;65202;52.520;10.528;2023-09-18T13:55:46;99927.38;;;23.96
76381;BMP280;65202;52.520;10.528;2023-09-18T13:58:13;99933.28;;;23.99
76381;BMP280;65202;52.520;10.528;2023-09-18T14:00:40;99938.81;;;23.80
76381;BMP280;65202;52.520;10.528;2023-09-18T14:03:10;99924.84;;;23.96
76381;BMP280;65202;52.520;10.528;2023-09-18T14:05:42;99939.69;;;23.80
76381;BMP280;65202;52.520;10.528;2023-09-18T14:08:09;99933.00;;;23.73
76381;BMP280;65202;52.520;10.528;2023-09-18T14:10:36;99939.03;;;23.69
76381;BMP280;65202;52.520;10.528;2023-09-18T14:13:06;99943.06;;;23.81
76381;BMP280;65202;52.520;10.528;2023-09-18T14:15:34;99937.38;;;23.67
76381;BMP280;65202;52.520;10.528;2023-09-18T14:18:01;99936.25;;;23.81